Aztec, New Mexico
Current Conditions -  °F | °C
As of 2:53 PM on Thursday 23 Oct 2014 (Local Time) from KFMN Reporting Station
Clear Clear  
Wind Chill: 22°   Ceiling: Unl
Heat Index: 22°   Visibility: 10mi
Dew Point:   Wind: 9mph
Humidity: 24%   Direction: 260°W
Pressure: 30.22"   Gusts: NA
Location:  36.83°N, 107.99°W
Report Text: KFMN 232053Z 26008KT 10SM CLR 22/01 A3022 RMK AO2 SLP199 T02220006 56020
Loading
Personal Weather Stations






























Interactive Weather Map
Tropical Storm Tracking
New forecast layout! Learn more

10-Day Weather Forecast

Advertisements
Track Severe Weather on mobile